Time;durP1;ratioP1;P1;durP2;ratioP2;P2;SDS_P1;SDS_P2;PMS_P1;PMS_P2;Temp;Humidity;BMP_temperature;BMP_pressure;BME280_temperature;BME280_humidity;BME280_pressure;Samples;Min_cycle;Max_cycle;Signal;HPM_P1;HPM_P2
2022/08/29 00:01:01;;;;;;;3.85;2.30;;;;;;;18.22;48.63;102113.50;4967658;28;113924;-78
2022/08/29 00:03:31;;;;;;;3.38;2.20;;;;;;;18.20;48.74;102112.72;4938003;28;125500;-79
2022/08/29 00:05:59;;;;;;;5.95;2.15;;;;;;;18.17;48.84;102115.56;4951695;28;124072;-79
2022/08/29 00:08:26;;;;;;;4.97;1.98;;;;;;;18.15;48.61;102114.78;4920187;28;113812;-81
2022/08/29 00:10:53;;;;;;;6.82;2.30;;;;;;;18.11;48.77;102110.56;4952528;28;113727;-79
2022/08/29 00:13:21;;;;;;;4.40;2.20;;;;;;;18.06;49.07;102114.38;4951192;28;124447;-79
2022/08/29 00:15:48;;;;;;;5.82;2.55;;;;;;;18.05;49.04;102112.63;4950994;28;123578;-79
2022/08/29 00:18:18;;;;;;;4.65;2.20;;;;;;;18.02;49.05;102107.41;4949585;28;114209;-79
2022/08/29 00:20:46;;;;;;;4.15;2.30;;;;;;;17.99;48.94;102099.56;4951786;28;115576;-79
2022/08/29 00:23:15;;;;;;;3.72;2.10;;;;;;;17.97;48.84;102104.16;4952349;28;123215;-80
2022/08/29 00:25:42;;;;;;;4.55;2.22;;;;;;;17.92;48.48;102095.50;4949954;28;124001;-81
2022/08/29 00:28:10;;;;;;;3.90;2.08;;;;;;;17.89;48.74;102101.03;4952317;28;114347;-80
2022/08/29 00:30:37;;;;;;;5.72;2.53;;;;;;;17.86;48.82;102101.22;4947988;28;113053;-81
2022/08/29 00:33:05;;;;;;;3.33;2.15;;;;;;;17.83;48.79;102112.06;4951998;28;124446;-79
2022/08/29 00:35:36;;;;;;;4.70;2.35;;;;;;;17.79;48.84;102110.50;4948595;28;123073;-79
2022/08/29 00:38:06;;;;;;;4.07;2.10;;;;;;;17.73;48.87;102105.50;4945886;28;113140;-79
2022/08/29 00:40:38;;;;;;;5.47;2.20;;;;;;;17.67;49.11;102104.00;4952355;28;113698;-80
2022/08/29 00:43:06;;;;;;;6.18;2.60;;;;;;;17.62;49.15;102120.31;4950972;28;124532;-80
2022/08/29 00:45:36;;;;;;;4.00;2.38;;;;;;;17.58;49.16;102112.53;4955022;28;123627;-78
2022/08/29 00:48:11;;;;;;;6.63;2.60;;;;;;;17.55;49.28;102110.03;4936716;28;112732;-80
2022/08/29 00:50:55;;;;;;;4.95;2.30;;;;;;;17.51;49.21;102112.84;4951768;28;113285;-78
2022/08/29 00:53:44;;;;;;;11.80;2.60;;;;;;;17.48;49.16;102112.19;4949324;28;122330;-80
2022/08/29 00:56:14;;;;;;;6.35;2.65;;;;;;;17.44;49.12;102116.84;4932314;28;123369;-79
2022/08/29 00:58:50;;;;;;;4.88;2.63;;;;;;;17.41;49.44;102126.84;4933762;28;116349;-79
2022/08/29 01:01:18;;;;;;;4.35;2.40;;;;;;;17.38;49.41;102121.66;4931947;28;113397;-80
2022/08/29 01:03:46;;;;;;;5.43;2.42;;;;;;;17.34;49.60;102115.59;4950160;28;124065;-79
2022/08/29 01:06:14;;;;;;;5.72;2.45;;;;;;;17.30;49.56;102109.53;4941477;28;123159;-79
2022/08/29 01:08:42;;;;;;;5.15;2.67;;;;;;;17.29;49.53;102112.28;4950479;28;115416;-80
2022/08/29 01:14:00;;;;;;;6.55;2.08;;;;;;;17.18;49.41;102110.19;4949207;28;123575;-79
2022/08/29 01:16:29;;;;;;;4.30;2.55;;;;;;;17.15;49.47;102121.03;4952862;28;123168;-80
2022/08/29 01:19:00;;;;;;;4.80;2.53;;;;;;;17.11;49.45;102119.47;4949548;28;113151;-78
2022/08/29 01:21:27;;;;;;;3.63;2.30;;;;;;;17.09;49.37;102116.03;4942866;28;112001;-81
2022/08/29 01:24:12;;;;;;;5.60;2.65;;;;;;;17.04;49.37;102124.28;4929807;28;123276;-79
2022/08/29 01:26:43;;;;;;;4.72;2.28;;;;;;;17.01;49.45;102128.91;4940155;28;97315;-79
2022/08/29 01:29:11;;;;;;;4.85;2.38;;;;;;;16.97;49.40;102130.03;4949757;28;115132;-81
2022/08/29 01:31:42;;;;;;;5.85;2.70;;;;;;;16.94;49.64;102133.72;4929999;28;112841;-79
2022/08/29 01:34:26;;;;;;;3.97;2.60;;;;;;;16.90;49.58;102133.03;4943184;28;123989;-79
2022/08/29 01:36:59;;;;;;;4.80;2.60;;;;;;;16.88;50.00;102129.56;4950590;28;124097;-79
2022/08/29 01:39:36;;;;;;;5.63;2.50;;;;;;;16.85;49.76;102129.72;4950263;28;114237;-80
2022/08/29 01:42:09;;;;;;;5.28;2.53;;;;;;;16.82;49.97;102124.53;4936083;28;113077;-80
2022/08/29 01:44:37;;;;;;;6.28;2.67;;;;;;;16.79;50.02;102119.28;4947527;28;123812;-79
2022/08/29 01:47:06;;;;;;;5.80;2.20;;;;;;;16.76;49.84;102122.09;4937795;28;124587;-79
2022/08/29 01:49:36;;;;;;;5.32;2.22;;;;;;;16.70;49.81;102125.97;4950376;28;114340;-79
2022/08/29 01:52:07;;;;;;;5.78;2.65;;;;;;;16.64;49.87;102125.41;4935039;28;112858;-80
2022/08/29 01:54:34;;;;;;;6.82;2.60;;;;;;;16.58;49.87;102123.91;4950024;28;123491;-81
2022/08/29 01:57:01;;;;;;;4.35;2.50;;;;;;;16.54;49.91;102125.88;4935092;28;122702;-80
2022/08/29 01:59:30;;;;;;;3.83;2.53;;;;;;;16.48;50.05;102119.94;4949814;28;116054;-79
2022/08/29 02:02:03;;;;;;;5.38;2.60;;;;;;;16.44;50.18;102124.59;4949427;28;112800;-78
2022/08/29 02:04:30;;;;;;;6.10;2.67;;;;;;;16.41;50.48;102127.44;4947433;28;124238;-78
2022/08/29 02:06:57;;;;;;;3.72;2.47;;;;;;;16.38;50.80;102127.56;4945961;28;122810;-81
2022/08/29 02:09:26;;;;;;;3.30;2.42;;;;;;;16.36;50.62;102126.78;4942099;28;114305;-79
2022/08/29 02:11:56;;;;;;;4.32;2.78;;;;;;;16.33;50.88;102121.56;4933650;28;113020;-79
2022/08/29 02:14:24;;;;;;;5.00;2.50;;;;;;;16.33;50.87;102132.25;4949562;28;123494;-80
2022/08/29 02:16:51;;;;;;;6.22;2.38;;;;;;;16.31;50.79;102120.78;4954438;28;124158;-79
2022/08/29 02:19:18;;;;;;;5.90;2.50;;;;;;;16.26;50.95;102109.47;4951455;28;114161;-79
2022/08/29 02:21:45;;;;;;;8.93;3.05;;;;;;;16.25;50.80;102118.41;4954079;28;114619;-79
2022/08/29 02:24:16;;;;;;;6.15;2.50;;;;;;;16.22;50.85;102118.56;4948609;28;123641;-82
2022/08/29 02:26:54;;;;;;;5.82;2.40;;;;;;;16.20;50.88;102115.09;4949755;28;124344;-80
2022/08/29 02:29:21;;;;;;;4.85;2.60;;;;;;;16.18;51.10;102123.22;4947047;28;114522;-81
2022/08/29 02:31:49;;;;;;;7.25;2.90;;;;;;;16.17;51.13;102131.28;4952321;28;113961;-80
2022/08/29 02:34:16;;;;;;;7.30;2.63;;;;;;;16.14;51.21;102126.94;4940433;28;124235;-79
2022/08/29 02:36:43;;;;;;;6.10;2.55;;;;;;;16.12;51.29;102124.38;4962370;28;122716;-78
2022/08/29 02:39:16;;;;;;;9.73;3.00;;;;;;;16.11;51.21;102127.97;4952218;28;113575;-80
2022/08/29 02:41:43;;;;;;;5.72;2.70;;;;;;;16.10;51.27;102126.22;4954112;28;113410;-79
2022/08/29 02:44:11;;;;;;;5.05;2.78;;;;;;;16.10;51.23;102131.56;4934428;28;124752;-81
2022/08/29 02:46:38;;;;;;;5.55;2.55;;;;;;;16.09;51.37;102137.00;4946591;28;123462;-80
2022/08/29 02:49:05;;;;;;;5.95;2.55;;;;;;;16.07;51.27;102139.75;4944991;28;115107;-81
2022/08/29 02:51:33;;;;;;;6.97;2.85;;;;;;;16.06;51.52;102132.66;4950541;28;114976;-79
2022/08/29 02:54:02;;;;;;;5.93;2.60;;;;;;;16.05;51.45;102133.63;4954153;28;123762;-79
2022/08/29 02:56:29;;;;;;;5.53;2.70;;;;;;;16.05;51.59;102133.63;4951046;28;123297;-80
2022/08/29 02:58:57;;;;;;;6.05;2.65;;;;;;;16.04;51.44;102131.88;4957255;28;114566;-80
2022/08/29 03:01:26;;;;;;;7.40;2.47;;;;;;;16.02;51.29;102139.09;4962562;28;115054;-80
2022/08/29 03:03:53;;;;;;;7.70;2.47;;;;;;;15.97;51.15;102143.78;4971008;28;122566;-79
2022/08/29 03:06:20;;;;;;;4.13;2.80;;;;;;;15.92;51.22;102137.81;4968060;28;124478;-79
2022/08/29 03:08:49;;;;;;;7.13;2.75;;;;;;;15.89;51.29;102143.28;4960739;28;113051;-79
2022/08/29 03:11:17;;;;;;;5.00;2.60;;;;;;;15.86;51.41;102138.06;4952130;28;114555;-78
2022/08/29 03:13:44;;;;;;;6.07;3.20;;;;;;;15.84;51.55;102139.94;4956031;28;123275;-80
2022/08/29 03:16:12;;;;;;;6.45;2.65;;;;;;;15.83;51.60;102132.88;4953553;28;123465;-79
2022/08/29 03:18:40;;;;;;;5.28;3.00;;;;;;;15.83;51.63;102132.88;4953516;28;112336;-78
2022/08/29 03:21:19;;;;;;;4.07;2.53;;;;;;;15.80;51.93;102127.69;4936387;28;113404;-78
2022/08/29 03:23:47;;;;;;;5.55;2.65;;;;;;;15.76;52.02;102133.19;4944703;28;122405;-79
2022/08/29 03:26:14;;;;;;;5.55;2.92;;;;;;;15.74;52.04;102135.03;4954140;28;123070;-78
2022/08/29 03:28:41;;;;;;;5.43;2.50;;;;;;;15.74;52.02;102119.00;4949554;28;113142;-79
2022/08/29 03:31:09;;;;;;;5.90;2.65;;;;;;;15.74;52.07;102119.00;4947128;28;113707;-79
2022/08/29 03:33:36;;;;;;;5.90;2.90;;;;;;;15.73;52.18;102122.63;4953872;28;125835;-78
2022/08/29 03:36:04;;;;;;;7.90;3.30;;;;;;;15.75;52.15;102120.75;4954099;28;123734;-79
2022/08/29 03:38:45;;;;;;;4.65;2.70;;;;;;;15.75;52.16;102125.22;4962784;28;115145;-79
2022/08/29 03:41:22;;;;;;;5.97;2.75;;;;;;;15.74;51.91;102124.34;4946595;28;114445;-78
2022/08/29 03:43:50;;;;;;;5.65;2.92;;;;;;;15.74;52.13;102124.34;4952923;28;124021;-79
2022/08/29 03:46:17;;;;;;;5.05;2.75;;;;;;;15.74;52.59;102124.34;4954136;28;123647;-78
2022/08/29 03:48:44;;;;;;;4.07;2.65;;;;;;;15.75;52.48;102126.09;4936151;28;113405;-78
2022/08/29 03:51:11;;;;;;;6.30;2.97;;;;;;;15.76;52.42;102124.28;4952811;28;112244;-79
2022/08/29 03:53:39;;;;;;;4.28;2.80;;;;;;;15.76;52.57;102122.50;4953044;28;123827;-79
2022/08/29 03:56:08;;;;;;;5.35;2.80;;;;;;;15.78;52.76;102125.06;4954227;28;124367;-79
2022/08/29 03:58:37;;;;;;;6.07;2.97;;;;;;;15.80;52.62;102123.19;4950955;28;116258;-80
2022/08/29 04:01:05;;;;;;;4.85;2.75;;;;;;;15.82;52.60;102125.78;4941354;28;113906;-78
2022/08/29 04:03:32;;;;;;;6.28;2.88;;;;;;;15.83;52.52;102111.50;4952046;28;124299;-77
2022/08/29 04:05:59;;;;;;;7.05;2.85;;;;;;;15.83;52.45;102112.38;4946353;28;124229;-78
2022/08/29 04:08:26;;;;;;;3.63;2.58;;;;;;;15.81;52.37;102108.06;4950947;28;115043;-79
2022/08/29 04:10:53;;;;;;;5.18;3.00;;;;;;;15.80;52.42;102117.00;4951731;28;113418;-80
2022/08/29 04:13:20;;;;;;;5.63;3.00;;;;;;;15.80;52.54;102117.00;4952778;28;124888;-81
2022/08/29 04:15:47;;;;;;;5.10;2.55;;;;;;;15.79;52.53;102113.47;4952341;28;123881;-79
2022/08/29 04:18:14;;;;;;;5.72;2.80;;;;;;;15.79;52.38;102112.59;4952102;28;114532;-78
2022/08/29 04:20:48;;;;;;;5.93;2.75;;;;;;;15.77;52.26;102118.00;4945690;28;114244;-81
2022/08/29 04:23:15;;;;;;;4.68;2.50;;;;;;;15.75;52.25;102111.88;4952344;28;122968;-79
2022/08/29 04:25:43;;;;;;;7.43;2.75;;;;;;;15.72;52.24;102114.66;4951714;28;123926;-79
2022/08/29 04:28:12;;;;;;;5.18;2.75;;;;;;;15.69;52.21;102107.66;4933786;28;115172;-79
2022/08/29 04:30:45;;;;;;;4.82;2.92;;;;;;;15.67;52.30;102106.84;4950689;28;114385;-79
2022/08/29 04:33:19;;;;;;;4.70;2.78;;;;;;;15.63;52.15;102113.25;4943292;28;124810;-80
2022/08/29 04:35:50;;;;;;;3.70;2.42;;;;;;;15.62;52.08;102106.19;4949455;28;123176;-79
2022/08/29 04:38:17;;;;;;;5.63;3.15;;;;;;;15.57;52.16;102105.53;4934624;28;114207;-79
2022/08/29 04:40:45;;;;;;;5.88;3.00;;;;;;;15.53;52.22;102103.94;4951410;28;114532;-79
2022/08/29 04:43:12;;;;;;;4.53;2.40;;;;;;;15.50;51.90;102112.09;4951196;28;123637;-80
2022/08/29 04:45:40;;;;;;;9.15;2.97;;;;;;;15.46;52.09;102113.16;4953413;28;123600;-79
2022/08/29 04:48:09;;;;;;;4.72;2.70;;;;;;;15.41;52.06;102125.84;4951315;28;113398;-80
2022/08/29 04:50:36;;;;;;;6.07;3.05;;;;;;;15.36;52.34;102129.59;4951466;28;113924;-79
2022/08/29 04:53:04;;;;;;;6.43;3.15;;;;;;;15.33;52.44;102124.41;4950641;28;123893;-78
2022/08/29 04:55:31;;;;;;;7.60;2.70;;;;;;;15.31;52.59;102126.28;4950970;28;123093;-80
2022/08/29 04:57:59;;;;;;;4.53;2.78;;;;;;;15.29;52.39;102122.78;4937624;28;114234;-79
2022/08/29 05:00:28;;;;;;;4.80;2.42;;;;;;;15.27;52.61;102119.31;4935935;28;112977;-80
2022/08/29 05:02:57;;;;;;;5.05;2.60;;;;;;;15.25;52.47;102125.66;4949937;28;123665;-78
2022/08/29 05:05:25;;;;;;;4.43;2.80;;;;;;;15.22;52.52;102117.78;4951561;28;123889;-78
2022/08/29 05:07:52;;;;;;;5.40;2.75;;;;;;;15.19;52.76;102126.81;4951948;28;113410;-78
2022/08/29 05:10:21;;;;;;;5.40;2.78;;;;;;;15.15;52.78;102119.88;4952357;28;113675;-80
2022/08/29 05:12:48;;;;;;;5.55;3.22;;;;;;;15.14;53.06;102128.81;4952715;28;124219;-81
2022/08/29 05:15:17;;;;;;;8.02;3.40;;;;;;;15.14;53.37;102128.81;4951241;28;124015;-79
2022/08/29 05:17:44;;;;;;;8.38;3.08;;;;;;;15.15;53.47;102135.88;4951339;28;115177;-78
2022/08/29 05:20:11;;;;;;;5.20;2.97;;;;;;;15.16;53.65;102142.94;4944980;28;114860;-78
2022/08/29 05:22:40;;;;;;;5.72;3.00;;;;;;;15.18;53.87;102141.06;4943957;28;122919;-78
2022/08/29 05:25:10;;;;;;;5.53;3.15;;;;;;;15.21;54.16;102146.28;4951155;28;123358;-81
2022/08/29 05:27:44;;;;;;;6.68;3.63;;;;;;;15.24;54.28;102146.16;4945073;28;113538;-79
2022/08/29 05:30:11;;;;;;;7.25;2.97;;;;;;;15.28;54.46;102150.44;4967132;28;114681;-79
2022/08/29 05:32:38;;;;;;;9.93;3.80;;;;;;;15.34;54.48;102147.47;4968080;28;123053;-77
2022/08/29 05:35:05;;;;;;;6.63;3.40;;;;;;;15.38;54.68;102143.72;4967939;28;125375;-79
2022/08/29 05:37:32;;;;;;;5.25;3.22;;;;;;;15.43;54.64;102145.34;4950579;28;114770;-78
2022/08/29 05:39:59;;;;;;;9.07;3.78;;;;;;;15.46;54.67;102139.84;4945589;28;113743;-80
2022/08/29 05:42:27;;;;;;;8.23;3.75;;;;;;;15.49;54.81;102135.25;4940860;28;124663;-82
2022/08/29 05:44:54;;;;;;;6.97;3.33;;;;;;;15.54;54.82;102140.41;4929545;28;123519;-80
2022/08/29 05:47:22;;;;;;;5.22;3.67;;;;;;;15.59;55.17;102135.69;4939938;28;114255;-79
2022/08/29 05:49:49;;;;;;;6.93;3.83;;;;;;;15.64;55.28;102144.38;4949415;28;114324;-78
2022/08/29 05:52:18;;;;;;;11.50;4.10;;;;;;;15.72;55.32;102142.22;4950556;28;124656;-80
2022/08/29 05:54:45;;;;;;;6.03;3.88;;;;;;;15.79;55.41;102144.66;4934190;28;124029;-79
2022/08/29 05:57:16;;;;;;;5.78;3.67;;;;;;;15.86;55.54;102151.41;4950251;28;113968;-80
2022/08/29 05:59:47;;;;;;;6.93;3.80;;;;;;;15.94;55.63;102146.59;4949181;28;112412;-78
2022/08/29 06:02:15;;;;;;;9.88;3.92;;;;;;;16.03;55.61;102151.53;4934267;28;123198;-79
2022/08/29 06:04:42;;;;;;;7.20;3.90;;;;;;;16.11;55.86;102144.00;4949619;28;124028;-81
2022/08/29 06:07:09;;;;;;;7.57;4.13;;;;;;;16.22;55.72;102156.88;4949761;28;114967;-80
2022/08/29 06:09:38;;;;;;;6.47;3.90;;;;;;;16.31;55.95;102161.78;4939245;28;114942;-81
2022/08/29 06:12:07;;;;;;;7.50;4.05;;;;;;;16.41;56.04;102162.19;4932249;28;124047;-80
2022/08/29 06:14:34;;;;;;;9.80;4.00;;;;;;;16.51;55.92;102158.13;4965026;28;124728;-80
2022/08/29 06:17:03;;;;;;;6.45;3.92;;;;;;;16.60;55.97;102156.81;4950515;28;113386;-81
2022/08/29 06:19:33;;;;;;;12.20;4.88;;;;;;;16.71;55.91;102153.59;4948905;28;113505;-80
2022/08/29 06:22:02;;;;;;;9.57;3.72;;;;;;;16.82;56.21;102161.06;4948621;28;124390;-81
2022/08/29 06:24:37;;;;;;;8.45;4.18;;;;;;;16.92;56.15;102162.38;4937086;28;123271;-81
2022/08/29 06:27:05;;;;;;;7.65;3.95;;;;;;;17.04;56.29;102166.25;4947746;28;113939;-80
2022/08/29 06:29:32;;;;;;;9.07;4.00;;;;;;;17.15;56.30;102169.22;4950093;28;114326;-82
2022/08/29 06:32:11;;;;;;;7.93;4.13;;;;;;;17.27;56.29;102157.91;4946220;28;124160;-81
2022/08/29 06:34:39;;;;;;;7.47;4.00;;;;;;;17.41;56.35;102164.34;4964599;28;124579;-78
2022/08/29 06:37:06;;;;;;;8.18;3.97;;;;;;;17.53;56.36;102163.69;4936523;28;114607;-81
2022/08/29 06:39:33;;;;;;;10.77;3.80;;;;;;;17.66;56.44;102167.44;4942342;28;113914;-80
2022/08/29 06:42:00;;;;;;;7.10;3.90;;;;;;;17.79;56.20;102172.13;4930880;28;123963;-80
2022/08/29 06:44:30;;;;;;;7.53;3.95;;;;;;;17.91;56.24;102168.81;4948102;28;124074;-81
2022/08/29 06:46:58;;;;;;;7.00;3.97;;;;;;;18.04;56.05;102169.84;4932742;28;112119;-81
2022/08/29 06:49:26;;;;;;;10.52;4.28;;;;;;;18.17;56.07;102169.19;4934031;28;114187;-81
2022/08/29 06:51:54;;;;;;;6.60;4.20;;;;;;;18.30;55.90;102164.88;4940194;28;123450;-80
2022/08/29 06:54:26;;;;;;;10.38;4.38;;;;;;;18.40;55.72;102160.72;4943343;28;123932;-81
2022/08/29 06:56:56;;;;;;;7.50;3.80;;;;;;;18.52;55.58;102163.66;4935483;28;114891;-79
2022/08/29 06:59:24;;;;;;;8.18;3.78;;;;;;;18.61;55.59;102157.72;4951065;28;114505;-80
2022/08/29 07:01:51;;;;;;;6.40;3.78;;;;;;;18.70;55.46;102167.94;4951104;28;122724;-80
2022/08/29 07:04:18;;;;;;;8.43;4.20;;;;;;;18.80;55.11;102168.28;4952853;28;123745;-80
2022/08/29 07:06:47;;;;;;;9.55;3.88;;;;;;;18.88;55.06;102170.56;4944310;28;113502;-81
2022/08/29 07:09:14;;;;;;;8.38;4.60;;;;;;;18.96;54.92;102168.25;4944421;28;111975;-82
2022/08/29 07:11:42;;;;;;;6.93;3.90;;;;;;;19.02;54.86;102178.63;4950914;28;124403;-79
2022/08/29 07:14:11;;;;;;;10.32;4.32;;;;;;;19.12;54.82;102181.63;4953111;28;122913;-80
2022/08/29 07:16:39;;;;;;;7.75;4.13;;;;;;;19.25;54.59;102185.34;4953003;28;114643;-81
2022/08/29 07:19:08;;;;;;;6.10;3.72;;;;;;;19.38;54.62;102185.44;4951368;28;113128;-81
2022/08/29 07:21:36;;;;;;;8.70;4.60;;;;;;;19.53;54.24;102194.38;4937517;28;124211;-80
2022/08/29 07:24:04;;;;;;;6.90;4.18;;;;;;;19.64;54.02;102192.75;4951866;28;123051;-80
2022/08/29 07:26:37;;;;;;;8.05;4.30;;;;;;;19.75;53.71;102193.97;4932450;28;113817;-81
2022/08/29 07:29:09;;;;;;;10.32;4.40;;;;;;;19.85;53.58;102195.09;4931982;28;113902;-79
2022/08/29 07:31:38;;;;;;;10.63;4.40;;;;;;;19.99;53.58;102186.19;4947533;28;123602;-81
2022/08/29 07:34:06;;;;;;;9.15;4.63;;;;;;;20.10;52.88;102189.06;4965445;28;124002;-80
2022/08/29 07:36:34;;;;;;;10.18;4.18;;;;;;;20.18;52.60;102183.19;4967255;28;114537;-80
2022/08/29 07:39:05;;;;;;;13.00;5.00;;;;;;;20.26;52.31;102183.53;4965587;28;113655;-81
2022/08/29 07:41:32;;;;;;;7.30;4.30;;;;;;;20.33;52.15;102184.00;4956767;28;123280;-79
2022/08/29 07:43:59;;;;;;;10.38;4.22;;;;;;;20.42;51.97;102181.56;4952811;28;123232;-78
2022/08/29 07:46:27;;;;;;;8.98;4.30;;;;;;;20.55;52.20;102183.44;4954455;28;115240;-77
2022/08/29 07:48:56;;;;;;;8.65;4.15;;;;;;;20.71;51.70;102178.81;4944969;28;114193;-77
2022/08/29 07:51:23;;;;;;;10.40;4.13;;;;;;;20.87;51.63;102177.78;4947252;28;124494;-77
2022/08/29 07:53:51;;;;;;;8.15;3.72;;;;;;;21.03;51.35;102170.41;4953289;28;123091;-78
2022/08/29 07:56:25;;;;;;;8.43;4.18;;;;;;;21.22;50.95;102171.84;4955473;28;114180;-79
2022/08/29 07:58:53;;;;;;;9.63;4.10;;;;;;;21.42;50.77;102178.50;4954429;28;114282;-78
2022/08/29 08:01:21;;;;;;;6.43;3.80;;;;;;;21.61;50.39;102178.16;4955646;28;123128;-77
2022/08/29 08:03:49;;;;;;;9.73;3.67;;;;;;;21.81;49.71;102180.25;4954811;28;123068;-76
2022/08/29 08:06:18;;;;;;;9.70;3.90;;;;;;;22.00;49.18;102178.94;4952205;28;114959;-77
2022/08/29 08:08:46;;;;;;;7.80;4.00;;;;;;;22.17;49.23;102175.91;4952876;28;113007;-79
2022/08/29 08:11:14;;;;;;;6.85;3.28;;;;;;;22.37;48.46;102165.50;4934349;28;124687;-77
2022/08/29 08:13:41;;;;;;;8.80;3.72;;;;;;;22.51;47.95;102168.91;4946463;28;124045;-80
2022/08/29 08:16:11;;;;;;;8.02;3.22;;;;;;;22.67;47.93;102163.19;4948460;28;113230;-77
2022/08/29 08:18:40;;;;;;;7.28;2.80;;;;;;;22.83;47.14;102168.31;4954612;28;113349;-78
2022/08/29 08:21:09;;;;;;;7.32;2.50;;;;;;;22.97;46.55;102167.25;4942801;28;122815;-77
2022/08/29 08:23:37;;;;;;;5.13;2.83;;;;;;;23.10;46.15;102168.06;4951213;28;122267;-78
2022/08/29 08:26:04;;;;;;;4.95;2.25;;;;;;;23.25;46.13;102167.84;4951756;28;113316;-77
2022/08/29 08:28:31;;;;;;;4.57;2.40;;;;;;;23.36;45.17;102170.59;4931098;28;112845;-77
2022/08/29 08:31:00;;;;;;;6.22;2.45;;;;;;;23.39;44.62;102173.03;4933503;28;124394;-77
2022/08/29 08:33:33;;;;;;;5.05;2.40;;;;;;;23.47;44.47;102175.13;4962519;28;123764;-78
2022/08/29 08:36:04;;;;;;;4.32;2.13;;;;;;;23.58;44.13;102174.28;4960640;28;115165;-77
2022/08/29 08:38:32;;;;;;;5.45;2.40;;;;;;;23.70;43.48;102167.91;4952367;28;114936;-77
2022/08/29 08:41:12;;;;;;;3.92;2.10;;;;;;;23.78;43.11;102170.84;4952663;28;123139;-77
2022/08/29 08:43:50;;;;;;;4.00;2.00;;;;;;;23.88;42.47;102166.47;4930041;28;123711;-77
2022/08/29 08:46:27;;;;;;;4.22;1.95;;;;;;;23.92;42.37;102172.47;4962667;28;114350;-77
2022/08/29 08:48:57;;;;;;;6.65;2.30;;;;;;;23.96;42.27;102178.50;4941910;28;114718;-77
2022/08/29 08:51:31;;;;;;;8.50;2.40;;;;;;;24.00;41.79;102180.00;4935236;28;125493;-77
2022/08/29 08:54:01;;;;;;;4.30;2.20;;;;;;;24.02;41.77;102169.91;4953044;28;125049;-77
2022/08/29 08:56:45;;;;;;;3.75;2.13;;;;;;;24.06;41.59;102174.06;4938136;28;113146;-77
2022/08/29 08:59:23;;;;;;;7.80;2.70;;;;;;;24.09;41.58;102168.38;4956966;28;113909;-76
2022/08/29 09:02:22;;;;;;;5.53;2.00;;;;;;;24.14;41.42;102171.59;4967812;28;123464;-79
2022/08/29 09:05:16;;;;;;;6.78;2.70;;;;;;;24.18;41.15;102167.63;4963065;28;123233;-80
2022/08/29 09:08:01;;;;;;;5.93;2.53;;;;;;;24.21;41.21;102172.81;4968532;28;116690;-76
2022/08/29 09:10:39;;;;;;;5.28;2.30;;;;;;;24.23;40.69;102176.25;4957798;28;114808;-76
2022/08/29 09:13:20;;;;;;;5.35;2.30;;;;;;;24.24;40.71;102178.00;4961426;28;124606;-77
2022/08/29 09:15:51;;;;;;;4.25;2.05;;;;;;;24.28;40.85;102184.88;4965079;28;123165;-79
2022/08/29 09:18:40;;;;;;;7.13;2.30;;;;;;;24.31;40.73;102178.31;4965181;28;112131;-79
2022/08/29 09:21:18;;;;;;;5.65;2.10;;;;;;;24.31;40.20;102182.91;4968105;28;114196;-80
2022/08/29 09:24:11;;;;;;;4.53;2.63;;;;;;;24.31;40.77;102189.16;4959394;28;123567;-79
2022/08/29 09:26:38;;;;;;;4.50;2.20;;;;;;;24.33;40.43;102180.91;4969101;28;123092;-79
2022/08/29 09:29:08;;;;;;;5.38;2.13;;;;;;;24.33;40.35;102180.91;4967447;28;116115;-79
2022/08/29 09:31:36;;;;;;;5.07;2.28;;;;;;;24.39;40.61;102185.81;4962398;28;114450;-80
2022/08/29 09:34:11;;;;;;;4.38;2.20;;;;;;;24.48;40.14;102174.22;4964547;28;125886;-78
2022/08/29 09:36:47;;;;;;;5.70;2.50;;;;;;;24.58;40.31;102186.06;4964531;28;122962;-79
2022/08/29 09:39:31;;;;;;;3.65;2.20;;;;;;;24.72;40.09;102173.22;4964995;28;113491;-80
2022/08/29 09:42:16;;;;;;;3.80;2.00;;;;;;;24.82;39.94;102171.41;4951947;28;113096;-80
2022/08/29 09:44:53;;;;;;;4.40;2.20;;;;;;;24.84;39.87;102174.88;4950213;28;124110;-79
2022/08/29 09:47:26;;;;;;;5.57;2.40;;;;;;;24.86;39.21;102167.47;4951769;28;124143;-80
2022/08/29 09:50:26;;;;;;;4.22;2.20;;;;;;;24.85;39.81;102166.59;4935988;28;113801;-79
2022/08/29 09:52:59;;;;;;;5.13;2.28;;;;;;;24.88;39.43;102160.06;4952794;28;113842;-79
2022/08/29 09:55:35;;;;;;;4.38;2.10;;;;;;;24.89;39.47;102167.22;4937006;28;123636;-79
2022/08/29 09:58:28;;;;;;;4.35;2.05;;;;;;;24.89;39.42;102167.22;4949113;28;121857;-79
2022/08/29 10:01:09;;;;;;;4.95;2.10;;;;;;;24.86;39.16;102167.47;4933789;28;114081;-79
2022/08/29 10:03:42;;;;;;;5.60;2.05;;;;;;;24.83;39.07;102162.31;4949657;28;113732;-78
2022/08/29 10:06:23;;;;;;;6.80;2.25;;;;;;;24.81;39.23;102164.31;4949495;28;124200;-79
2022/08/29 10:09:01;;;;;;;4.68;2.03;;;;;;;24.83;39.34;102162.31;4940958;28;123417;-79
2022/08/29 10:11:48;;;;;;;6.28;2.20;;;;;;;24.80;39.45;102163.41;4949158;28;114817;-78
2022/08/29 10:14:55;;;;;;;6.85;2.20;;;;;;;24.80;39.24;102173.41;4939431;28;114291;-78
2022/08/29 10:20:51;;;;;;;5.25;2.35;;;;;;;24.81;39.34;102175.13;4951418;28;123487;-79
2022/08/29 10:23:29;;;;;;;4.45;2.20;;;;;;;24.82;39.53;102177.69;4948518;28;115804;-78
2022/08/29 10:26:04;;;;;;;5.07;2.25;;;;;;;24.85;39.29;102179.31;4949542;28;114301;-79
2022/08/29 10:28:46;;;;;;;7.47;2.50;;;;;;;24.86;39.54;102175.59;4947563;28;122344;-79
2022/08/29 10:31:34;;;;;;;4.57;1.77;;;;;;;24.86;39.28;102167.47;4961676;28;124106;-78
2022/08/29 10:34:09;;;;;;;4.57;2.30;;;;;;;24.88;39.44;102170.91;4950133;28;114020;-79
2022/08/29 10:36:40;;;;;;;5.43;2.05;;;;;;;24.92;39.36;102164.25;4935221;28;112914;-79
2022/08/29 10:39:14;;;;;;;4.07;1.98;;;;;;;24.97;39.34;102164.69;4952670;28;123815;-78
2022/08/29 10:41:56;;;;;;;6.47;2.40;;;;;;;25.08;39.64;102160.22;4949696;28;123761;-79
2022/08/29 10:44:28;;;;;;;5.35;2.20;;;;;;;25.20;38.99;102153.72;4951902;28;112790;-78
2022/08/29 10:47:11;;;;;;;4.05;1.98;;;;;;;25.31;38.72;102144.69;4940865;28;114287;-78
2022/08/29 10:50:23;;;;;;;5.38;2.17;;;;;;;25.40;38.80;102146.59;4949351;28;123765;-79
2022/08/29 10:53:25;;;;;;;5.43;2.25;;;;;;;25.50;38.32;102141.22;4923578;28;124153;-79
2022/08/29 10:56:02;;;;;;;5.40;2.10;;;;;;;25.53;38.12;102149.09;4942581;28;114358;-79
2022/08/29 10:58:54;;;;;;;6.57;2.03;;;;;;;25.51;38.07;102149.22;4948754;28;113218;-79
2022/08/29 11:01:42;;;;;;;6.25;2.42;;;;;;;25.48;38.32;102146.78;4951379;28;123669;-78
2022/08/29 11:04:16;;;;;;;3.53;1.83;;;;;;;25.52;37.69;102142.78;4940852;28;122845;-78
2022/08/29 11:07:03;;;;;;;7.43;2.40;;;;;;;25.54;38.04;102139.94;4933364;28;114526;-78
2022/08/29 11:09:37;;;;;;;3.60;1.83;;;;;;;25.64;37.78;102140.88;4946474;28;113399;-79
2022/08/29 11:12:16;;;;;;;5.03;2.30;;;;;;;25.73;37.73;102134.63;4942133;28;124510;-79
2022/08/29 11:14:51;;;;;;;6.30;2.60;;;;;;;25.86;37.57;102133.50;4947400;28;123722;-78
2022/08/29 11:17:22;;;;;;;5.32;2.30;;;;;;;25.97;37.41;102137.00;4949222;28;115829;-79
2022/08/29 11:19:54;;;;;;;4.85;2.20;;;;;;;26.04;37.19;102129.16;4949969;28;114567;-78
2022/08/29 11:22:44;;;;;;;5.00;2.40;;;;;;;26.06;37.31;102119.03;4950363;28;123526;-78
2022/08/29 11:25:15;;;;;;;5.00;2.20;;;;;;;26.12;37.17;102123.88;4950858;28;125737;-78
2022/08/29 11:27:53;;;;;;;5.97;2.30;;;;;;;26.16;37.30;102125.34;4953452;28;114142;-78
2022/08/29 11:30:29;;;;;;;4.88;2.05;;;;;;;26.17;37.32;102127.06;4948416;28;112762;-77
2022/08/29 11:33:16;;;;;;;7.13;2.17;;;;;;;26.25;37.38;102111.91;4948632;28;123334;-78
2022/08/29 11:35:43;;;;;;;5.80;2.47;;;;;;;26.34;37.41;102114.63;4950615;28;127568;-77
2022/08/29 11:38:42;;;;;;;6.15;2.33;;;;;;;26.47;37.12;102111.66;4950630;28;113151;-77
2022/08/29 11:41:22;;;;;;;4.95;2.28;;;;;;;26.58;36.90;102111.50;4933549;28;113083;-78
2022/08/29 11:44:03;;;;;;;6.43;2.10;;;;;;;26.64;36.92;102107.38;4954924;28;123308;-77